Time;durP1;ratioP1;P1;durP2;ratioP2;P2;SDS_P1;SDS_P2;PMS_P1;PMS_P2;Temp;Humidity;BMP_temperature;BMP_pressure;BME280_temperature;BME280_humidity;BME280_pressure;Samples;Min_cycle;Max_cycle;Signal;HPM_P1;HPM_P2
2024/04/21 00:01:13;;;;;;;1.80;1.67;;;;;;;;;;10770734;26;20797;-73
2024/04/21 00:06:07;;;;;;;1.50;1.40;;;;;;;;;;10740542;26;20000;-73
2024/04/21 00:11:02;;;;;;;1.95;1.63;;;;;;;;;;10753784;26;20011;-73
2024/04/21 00:15:55;;;;;;;1.70;1.60;;;;;;;;;;10771141;26;20047;-73
2024/04/21 00:20:49;;;;;;;1.70;1.60;;;;;;;;;;10769068;26;20005;-73
2024/04/21 00:25:44;;;;;;;1.70;1.60;;;;;;;;;;10766800;26;20078;-73
2024/04/21 00:30:38;;;;;;;1.90;1.67;;;;;;;;;;10764816;26;20004;-73
2024/04/21 00:35:32;;;;;;;1.70;1.60;;;;;;;;;;10769571;26;20000;-73
2024/04/21 00:40:26;;;;;;;1.58;1.50;;;;;;;;;;10763032;26;20016;-73
2024/04/21 00:45:20;;;;;;;2.00;1.60;;;;;;;;;;10758549;26;20004;-73
2024/04/21 00:50:28;;;;;;;1.48;1.48;;;;;;;;;;10766659;26;20012;-73
2024/04/21 00:55:22;;;;;;;2.80;1.40;;;;;;;;;;10767939;26;20004;-73
2024/04/21 01:00:17;;;;;;;1.50;1.40;;;;;;;;;;10762256;26;20015;-74
2024/04/21 01:05:10;;;;;;;1.67;1.58;;;;;;;;;;10776864;26;19996;-74
2024/04/21 01:10:05;;;;;;;1.85;1.60;;;;;;;;;;10760664;26;20004;-74
2024/04/21 01:15:00;;;;;;;1.48;1.38;;;;;;;;;;10769501;26;20008;-74
2024/04/21 01:19:54;;;;;;;1.58;1.48;;;;;;;;;;10768526;26;20101;-75
2024/04/21 01:24:47;;;;;;;1.90;1.80;;;;;;;;;;10768714;26;20326;-75
2024/04/21 01:29:42;;;;;;;1.80;1.70;;;;;;;;;;10766729;26;20017;-74
2024/04/21 01:34:36;;;;;;;1.73;1.63;;;;;;;;;;10768257;26;20028;-74
2024/04/21 01:39:31;;;;;;;1.90;1.80;;;;;;;;;;10769314;26;20036;-73
2024/04/21 01:44:26;;;;;;;2.33;1.60;;;;;;;;;;10765698;26;20035;-73
2024/04/21 01:49:20;;;;;;;2.00;1.90;;;;;;;;;;10767286;26;20012;-73
2024/04/21 01:54:15;;;;;;;1.90;1.80;;;;;;;;;;10766212;26;20007;-74
2024/04/21 01:59:09;;;;;;;1.80;1.70;;;;;;;;;;10767609;26;20005;-74
2024/04/21 02:04:04;;;;;;;1.70;1.60;;;;;;;;;;10768520;26;20103;-73
2024/04/21 02:08:58;;;;;;;2.03;1.90;;;;;;;;;;10764763;26;20004;-74
2024/04/21 02:13:52;;;;;;;1.88;1.77;;;;;;;;;;10787285;26;20433;-75
2024/04/21 02:18:46;;;;;;;2.58;1.90;;;;;;;;;;10767973;26;20012;-74
2024/04/21 02:23:40;;;;;;;3.70;2.00;;;;;;;;;;10766277;26;20081;-74
2024/04/21 02:28:35;;;;;;;1.83;1.60;;;;;;;;;;10765988;26;20417;-73
2024/04/21 02:33:29;;;;;;;1.80;1.70;;;;;;;;;;10764491;26;20062;-73
2024/04/21 02:38:23;;;;;;;1.70;1.60;;;;;;;;;;10766522;26;20004;-75
2024/04/21 02:43:17;;;;;;;2.20;2.10;;;;;;;;;;10761882;26;20012;-73
2024/04/21 02:48:12;;;;;;;2.40;2.20;;;;;;;;;;10747683;26;20032;-73
2024/04/21 02:53:06;;;;;;;2.08;1.95;;;;;;;;;;10757603;26;20421;-74
2024/04/21 02:58:00;;;;;;;7.20;1.83;;;;;;;;;;10767735;26;20004;-75
2024/04/21 03:02:54;;;;;;;1.40;1.40;;;;;;;;;;10762583;26;20362;-72
2024/04/21 03:07:48;;;;;;;1.65;1.52;;;;;;;;;;10762363;26;20031;-72
2024/04/21 03:12:42;;;;;;;1.92;1.83;;;;;;;;;;10759461;26;20024;-72
2024/04/21 03:17:37;;;;;;;2.03;1.88;;;;;;;;;;10766176;26;20004;-74
2024/04/21 03:22:31;;;;;;;2.03;1.92;;;;;;;;;;10764995;26;20008;-74
2024/04/21 03:27:26;;;;;;;1.88;1.77;;;;;;;;;;10764440;26;20005;-74
2024/04/21 03:32:20;;;;;;;2.03;1.83;;;;;;;;;;10764761;26;20004;-75
2024/04/21 03:37:14;;;;;;;2.20;2.00;;;;;;;;;;10765882;26;20018;-74
2024/04/21 03:42:09;;;;;;;2.85;1.60;;;;;;;;;;10763198;26;20012;-74
2024/04/21 03:47:04;;;;;;;4.88;2.30;;;;;;;;;;10764226;26;20004;-73
2024/04/21 03:52:00;;;;;;;2.20;2.00;;;;;;;;;;10761991;26;20086;-73
2024/04/21 03:56:54;;;;;;;1.98;1.88;;;;;;;;;;10763770;26;20004;-73
2024/04/21 04:01:48;;;;;;;1.88;1.77;;;;;;;;;;10763081;26;20078;-74
2024/04/21 04:06:43;;;;;;;2.03;1.85;;;;;;;;;;10761837;26;20039;-73
2024/04/21 04:11:38;;;;;;;2.38;2.17;;;;;;;;;;10773282;26;20432;-73
2024/04/21 04:16:32;;;;;;;2.10;1.90;;;;;;;;;;10762578;26;20012;-73
2024/04/21 04:21:25;;;;;;;1.73;1.63;;;;;;;;;;10756097;26;20011;-73
2024/04/21 04:26:20;;;;;;;2.25;1.75;;;;;;;;;;10756565;26;20000;-74
2024/04/21 04:31:16;;;;;;;1.95;1.70;;;;;;;;;;10759987;26;20015;-73
2024/04/21 04:36:10;;;;;;;1.80;1.70;;;;;;;;;;10769367;26;20004;-74
2024/04/21 04:41:05;;;;;;;1.90;1.80;;;;;;;;;;10765637;26;20016;-74
2024/04/21 04:46:00;;;;;;;2.45;1.90;;;;;;;;;;10751771;26;20016;-74
2024/04/21 04:50:53;;;;;;;2.75;1.67;;;;;;;;;;10765208;26;20425;-74
2024/04/21 04:55:47;;;;;;;2.58;2.03;;;;;;;;;;10769059;26;20004;-73
2024/04/21 05:00:41;;;;;;;2.83;1.80;;;;;;;;;;10769114;26;20428;-74
2024/04/21 05:05:35;;;;;;;3.25;2.05;;;;;;;;;;10766285;26;20032;-74
2024/04/21 05:10:29;;;;;;;3.22;2.78;;;;;;;;;;10776183;26;20333;-72
2024/04/21 05:15:23;;;;;;;3.33;3.03;;;;;;;;;;10793966;26;20347;-72
2024/04/21 05:20:17;;;;;;;5.05;3.80;;;;;;;;;;10799347;26;20014;-75
2024/04/21 05:25:12;;;;;;;4.18;3.60;;;;;;;;;;10791740;26;20016;-73
2024/04/21 05:30:09;;;;;;;4.07;3.63;;;;;;;;;;10800189;26;20023;-72
2024/04/21 05:35:04;;;;;;;11.88;8.70;;;;;;;;;;10785449;26;20004;-72
2024/04/21 05:39:58;;;;;;;4.55;3.92;;;;;;;;;;10795726;26;20012;-72
2024/04/21 05:44:52;;;;;;;3.05;2.40;;;;;;;;;;10772770;26;20003;-74
2024/04/21 05:49:47;;;;;;;2.78;2.40;;;;;;;;;;10814345;26;20011;-74
2024/04/21 05:54:40;;;;;;;1.77;1.67;;;;;;;;;;10830529;26;20005;-74
2024/04/21 05:59:34;;;;;;;1.42;1.30;;;;;;;;;;10799566;26;20019;-74
2024/04/21 06:04:31;;;;;;;1.45;1.35;;;;;;;;;;10815574;26;20004;-75
2024/04/21 06:09:26;;;;;;;2.15;1.85;;;;;;;;;;10794831;26;20012;-73
2024/04/21 06:14:19;;;;;;;2.03;1.60;;;;;;;;;;10797939;26;20013;-75
2024/04/21 06:19:13;;;;;;;1.60;1.50;;;;;;;;;;10783395;26;20049;-73
2024/04/21 06:24:07;;;;;;;4.75;1.58;;;;;;;;;;10781554;26;20429;-73
2024/04/21 06:29:01;;;;;;;1.80;1.67;;;;;;;;;;10793118;26;20410;-73
2024/04/21 06:33:55;;;;;;;2.03;1.92;;;;;;;;;;10789504;26;20448;-73
2024/04/21 06:38:52;;;;;;;1.65;1.55;;;;;;;;;;10803289;26;20035;-73
2024/04/21 06:43:48;;;;;;;4.43;1.50;;;;;;;;;;10792714;26;20015;-72
2024/04/21 06:48:43;;;;;;;2.15;1.35;;;;;;;;;;10762027;26;20018;-84
2024/04/21 06:53:37;;;;;;;1.75;1.60;;;;;;;;;;10761272;26;20466;-76
2024/04/21 06:58:32;;;;;;;3.78;1.52;;;;;;;;;;10783627;26;20032;-79
2024/04/21 07:03:25;;;;;;;1.33;1.23;;;;;;;;;;10783665;26;20004;-78
2024/04/21 07:08:19;;;;;;;3.97;1.67;;;;;;;;;;10782430;26;20000;-80
2024/04/21 07:13:12;;;;;;;3.58;1.50;;;;;;;;;;10768207;26;20865;-78
2024/04/21 07:18:07;;;;;;;4.45;1.42;;;;;;;;;;10758263;26;20012;-79
2024/04/21 07:23:00;;;;;;;1.80;1.30;;;;;;;;;;10754782;26;20004;-79
2024/04/21 07:27:55;;;;;;;1.20;1.10;;;;;;;;;;10754536;26;20005;-79
2024/04/21 07:32:49;;;;;;;1.60;1.50;;;;;;;;;;10761172;26;20040;-79
2024/04/21 07:37:43;;;;;;;1.23;1.17;;;;;;;;;;10761383;26;20056;-80
2024/04/21 07:42:38;;;;;;;2.30;1.38;;;;;;;;;;10761352;26;20004;-80
2024/04/21 07:47:32;;;;;;;2.00;1.90;;;;;;;;;;10761164;26;20050;-81
2024/04/21 07:52:26;;;;;;;1.42;1.33;;;;;;;;;;10764963;26;20005;-81
2024/04/21 07:57:20;;;;;;;1.92;1.75;;;;;;;;;;10770200;26;20020;-82
2024/04/21 08:02:14;;;;;;;9.57;1.35;;;;;;;;;;10758152;26;20015;-82
2024/04/21 08:07:09;;;;;;;2.40;1.50;;;;;;;;;;10764784;26;20444;-80
2024/04/21 08:12:03;;;;;;;3.03;1.67;;;;;;;;;;10784363;26;20015;-81
2024/04/21 08:16:57;;;;;;;1.70;1.40;;;;;;;;;;10767786;26;20004;-80
2024/04/21 08:21:52;;;;;;;1.58;1.48;;;;;;;;;;10767347;26;20078;-81
2024/04/21 08:26:48;;;;;;;2.15;1.27;;;;;;;;;;10767050;26;20004;-80
2024/04/21 08:31:43;;;;;;;1.30;1.00;;;;;;;;;;10765535;26;20015;-80
2024/04/21 08:36:37;;;;;;;3.47;1.60;;;;;;;;;;10767741;26;20004;-80
2024/04/21 08:41:42;;;;;;;1.58;1.45;;;;;;;;;;10741440;26;20004;-79
2024/04/21 08:46:52;;;;;;;2.00;1.40;;;;;;;;;;10757258;26;20008;-80
2024/04/21 08:51:48;;;;;;;1.08;1.00;;;;;;;;;;10759337;26;20012;-73
2024/04/21 08:56:46;;;;;;;1.40;1.30;;;;;;;;;;10762979;26;20305;-74
2024/04/21 09:01:40;;;;;;;2.70;1.08;;;;;;;;;;10736055;26;20015;-71
2024/04/21 09:06:34;;;;;;;2.53;1.27;;;;;;;;;;10766244;26;20004;-73
2024/04/21 09:11:30;;;;;;;2.00;1.80;;;;;;;;;;10792774;26;20004;-73
2024/04/21 09:16:27;;;;;;;1.80;1.52;;;;;;;;;;10773982;26;20028;-73
2024/04/21 09:21:21;;;;;;;3.25;1.10;;;;;;;;;;10765905;26;20012;-74
2024/04/21 09:26:15;;;;;;;1.77;1.50;;;;;;;;;;10765780;26;20452;-74
2024/04/21 09:31:15;;;;;;;1.38;1.13;;;;;;;;;;10765241;26;20004;-73
2024/04/21 09:36:09;;;;;;;0.85;0.85;;;;;;;;;;10765121;26;20077;-74
2024/04/21 09:41:04;;;;;;;5.10;1.40;;;;;;;;;;10815971;26;20015;-74
2024/04/21 09:45:58;;;;;;;2.67;1.00;;;;;;;;;;10825945;26;20004;-74
2024/04/21 09:50:52;;;;;;;3.17;1.08;;;;;;;;;;10798538;26;20004;-74
2024/04/21 09:55:48;;;;;;;8.93;8.02;;;;;;;;;;10827592;26;20015;-74
2024/04/21 10:00:44;;;;;;;1.42;1.20;;;;;;;;;;10827036;26;20003;-74
2024/04/21 10:05:39;;;;;;;1.55;1.35;;;;;;;;;;10828155;26;20080;-74
2024/04/21 10:10:36;;;;;;;2.60;2.10;;;;;;;;;;10827596;26;20015;-74
2024/04/21 10:15:38;;;;;;;1.33;1.10;;;;;;;;;;10765427;26;20004;-74
2024/04/21 10:20:37;;;;;;;1.20;1.10;;;;;;;;;;10766067;26;20041;-75
2024/04/21 10:25:37;;;;;;;4.45;1.38;;;;;;;;;;10767637;26;20014;-75
2024/04/21 10:30:32;;;;;;;2.60;1.42;;;;;;;;;;10777366;26;20142;-74
2024/04/21 10:35:34;;;;;;;1.45;1.08;;;;;;;;;;10765135;26;20429;-74
2024/04/21 10:40:27;;;;;;;2.58;2.00;;;;;;;;;;10763609;26;20082;-74
2024/04/21 10:45:22;;;;;;;1.38;1.08;;;;;;;;;;10765961;26;20082;-74
2024/04/21 10:50:16;;;;;;;4.07;1.48;;;;;;;;;;10766059;26;20040;-74
2024/04/21 10:55:10;;;;;;;1.52;1.05;;;;;;;;;;10764427;26;20012;-74
2024/04/21 11:00:06;;;;;;;2.75;0.90;;;;;;;;;;10764025;26;20047;-74
2024/04/21 11:05:00;;;;;;;0.88;0.75;;;;;;;;;;10760944;26;20040;-75
2024/04/21 11:09:55;;;;;;;1.98;1.50;;;;;;;;;;10764518;26;20004;-75
2024/04/21 11:14:57;;;;;;;1.30;1.05;;;;;;;;;;10765213;26;20011;-75
2024/04/21 11:19:51;;;;;;;3.40;1.55;;;;;;;;;;10765465;26;20004;-74
2024/04/21 11:24:47;;;;;;;2.70;0.98;;;;;;;;;;10714802;26;20527;-75
2024/04/21 11:29:42;;;;;;;2.05;1.15;;;;;;;;;;10762954;26;20366;-75
2024/04/21 11:34:40;;;;;;;1.55;1.45;;;;;;;;;;10761598;26;20019;-75
2024/04/21 11:39:34;;;;;;;1.25;1.15;;;;;;;;;;10765954;26;20004;-75
2024/04/21 11:44:29;;;;;;;1.75;1.40;;;;;;;;;;10769195;26;20031;-75
2024/04/21 11:49:23;;;;;;;4.55;1.30;;;;;;;;;;10745680;26;20016;-74
2024/04/21 11:54:17;;;;;;;1.40;1.30;;;;;;;;;;10755557;26;20004;-75
2024/04/21 11:59:11;;;;;;;1.50;1.40;;;;;;;;;;10755547;26;20484;-74
2024/04/21 12:04:05;;;;;;;1.67;1.58;;;;;;;;;;10757215;26;20015;-74
2024/04/21 12:09:04;;;;;;;1.50;1.40;;;;;;;;;;10769209;26;20004;-73
2024/04/21 12:14:16;;;;;;;1.63;1.53;;;;;;;;;;10781867;26;20048;-74
2024/04/21 12:19:10;;;;;;;3.35;2.25;;;;;;;;;;10765318;26;20032;-74
2024/04/21 12:24:05;;;;;;;1.55;1.45;;;;;;;;;;10761082;26;20007;-73
2024/04/21 12:29:00;;;;;;;1.63;1.52;;;;;;;;;;10761043;26;20015;-73
2024/04/21 12:33:53;;;;;;;4.03;1.70;;;;;;;;;;10770961;26;20014;-73
2024/04/21 12:38:48;;;;;;;3.72;1.52;;;;;;;;;;10779927;26;20016;-76
2024/04/21 12:43:43;;;;;;;7.72;2.35;;;;;;;;;;10765259;26;20019;-73
2024/04/21 12:48:37;;;;;;;1.23;1.13;;;;;;;;;;10764605;26;20019;-73
2024/04/21 12:53:31;;;;;;;1.40;1.30;;;;;;;;;;10764138;26;20127;-72
2024/04/21 12:58:25;;;;;;;1.50;1.33;;;;;;;;;;10766111;26;20016;-73
2024/04/21 13:03:19;;;;;;;1.80;1.58;;;;;;;;;;10762777;26;20012;-73
2024/04/21 13:08:13;;;;;;;1.50;1.40;;;;;;;;;;10765562;26;20009;-71
2024/04/21 13:13:07;;;;;;;1.50;1.30;;;;;;;;;;10786406;26;20014;-72
2024/04/21 13:18:02;;;;;;;1.35;1.25;;;;;;;;;;10765138;26;20004;-73
2024/04/21 13:22:58;;;;;;;1.40;1.30;;;;;;;;;;10764959;26;20332;-74
2024/04/21 13:27:52;;;;;;;1.50;1.40;;;;;;;;;;10765179;26;20004;-72
2024/04/21 13:32:46;;;;;;;2.17;1.75;;;;;;;;;;10763698;26;20488;-72
2024/04/21 13:37:43;;;;;;;4.07;2.15;;;;;;;;;;10764534;26;20005;-73
2024/04/21 13:42:36;;;;;;;2.08;1.70;;;;;;;;;;10761751;26;20026;-72
2024/04/21 13:47:30;;;;;;;3.47;3.17;;;;;;;;;;10761330;26;20016;-73
2024/04/21 13:52:26;;;;;;;1.73;1.63;;;;;;;;;;10759797;26;20012;-71
2024/04/21 13:57:21;;;;;;;1.60;1.48;;;;;;;;;;10763900;26;20005;-72
2024/04/21 14:02:16;;;;;;;1.80;1.65;;;;;;;;;;10762699;26;20011;-72
2024/04/21 14:07:10;;;;;;;3.05;2.50;;;;;;;;;;10732883;26;20023;-73
2024/04/21 14:12:05;;;;;;;1.80;1.70;;;;;;;;;;10779570;26;20014;-74
2024/04/21 14:16:58;;;;;;;2.38;2.17;;;;;;;;;;10712721;26;20015;-70
2024/04/21 14:21:53;;;;;;;7.35;4.72;;;;;;;;;;10762017;26;20504;-71
2024/04/21 14:26:47;;;;;;;7.32;4.80;;;;;;;;;;10762801;26;20368;-73
2024/04/21 14:31:41;;;;;;;22.88;14.10;;;;;;;;;;10750366;26;20004;-69
2024/04/21 14:36:36;;;;;;;3.20;2.88;;;;;;;;;;10732036;26;20012;-70
2024/04/21 14:41:30;;;;;;;1.65;1.55;;;;;;;;;;10709877;26;20351;-75
2024/04/21 14:46:25;;;;;;;1.50;1.40;;;;;;;;;;10756696;26;20020;-76
2024/04/21 14:51:18;;;;;;;3.35;1.75;;;;;;;;;;10762381;26;20015;-76
2024/04/21 14:56:13;;;;;;;4.63;2.80;;;;;;;;;;10762678;26;20081;-77
2024/04/21 15:01:07;;;;;;;24.00;13.55;;;;;;;;;;10715443;26;20019;-75
2024/04/21 15:06:01;;;;;;;3.30;2.15;;;;;;;;;;10752148;26;20015;-76
2024/04/21 15:10:55;;;;;;;2.97;1.50;;;;;;;;;;10759202;26;20019;-78
2024/04/21 15:15:50;;;;;;;1.40;1.30;;;;;;;;;;10755441;26;20004;-76
2024/04/21 15:20:47;;;;;;;1.77;1.67;;;;;;;;;;10761124;26;20019;-76
2024/04/21 15:25:43;;;;;;;2.83;2.58;;;;;;;;;;10754368;26;20349;-76
2024/04/21 15:30:37;;;;;;;3.20;2.28;;;;;;;;;;10761148;26;20023;-76
2024/04/21 15:35:31;;;;;;;6.10;3.38;;;;;;;;;;10760997;26;20004;-76
2024/04/21 15:40:26;;;;;;;1.60;1.10;;;;;;;;;;10760601;26;20034;-76
2024/04/21 15:45:20;;;;;;;6.22;2.20;;;;;;;;;;10755890;26;20040;-78
2024/04/21 15:50:13;;;;;;;5.80;1.65;;;;;;;;;;10761291;26;20452;-78
2024/04/21 15:55:09;;;;;;;4.68;1.80;;;;;;;;;;10757378;26;20346;-77
2024/04/21 16:00:05;;;;;;;7.22;2.78;;;;;;;;;;10759904;26;20016;-81
2024/04/21 16:05:00;;;;;;;3.83;2.20;;;;;;;;;;10757156;26;20020;-78
2024/04/21 16:09:57;;;;;;;2.00;1.90;;;;;;;;;;10757880;26;20456;-78
2024/04/21 16:14:51;;;;;;;2.53;2.17;;;;;;;;;;10760382;26;20015;-77
2024/04/21 16:19:45;;;;;;;5.35;4.85;;;;;;;;;;10757853;26;20001;-77
2024/04/21 16:24:40;;;;;;;8.02;6.53;;;;;;;;;;10758341;26;20020;-75
2024/04/21 16:29:34;;;;;;;6.53;4.80;;;;;;;;;;10766989;26;20012;-75
2024/04/21 16:34:30;;;;;;;4.32;3.15;;;;;;;;;;10764882;26;20086;-77
2024/04/21 16:39:25;;;;;;;3.60;2.80;;;;;;;;;;10767012;26;20004;-76
2024/04/21 16:44:19;;;;;;;5.88;2.10;;;;;;;;;;10765287;26;20022;-78
2024/04/21 16:49:14;;;;;;;4.20;3.83;;;;;;;;;;10776805;26;20004;-76
2024/04/21 16:54:10;;;;;;;4.13;2.58;;;;;;;;;;10807139;26;20048;-77
2024/04/21 16:59:04;;;;;;;4.38;3.97;;;;;;;;;;10796870;26;20017;-77
2024/04/21 17:04:00;;;;;;;3.08;2.75;;;;;;;;;;10785126;26;20018;-78
2024/04/21 17:08:54;;;;;;;3.58;2.88;;;;;;;;;;10811930;26;20015;-77
2024/04/21 17:13:48;;;;;;;3.00;2.63;;;;;;;;;;10778112;26;20433;-77
2024/04/21 17:18:43;;;;;;;4.40;2.70;;;;;;;;;;10803054;26;20015;-78
2024/04/21 17:23:37;;;;;;;4.57;3.42;;;;;;;;;;10784850;26;20003;-77
2024/04/21 17:28:31;;;;;;;6.70;4.72;;;;;;;;;;10784405;26;20003;-79
2024/04/21 17:33:26;;;;;;;4.35;3.92;;;;;;;;;;10802991;26;20142;-77
2024/04/21 17:38:20;;;;;;;3.63;2.70;;;;;;;;;;10793457;26;20084;-78
2024/04/21 17:43:13;;;;;;;2.95;2.65;;;;;;;;;;10781270;26;20000;-77
2024/04/21 17:48:09;;;;;;;7.18;6.47;;;;;;;;;;10790274;26;20053;-78
2024/04/21 17:53:04;;;;;;;8.95;8.15;;;;;;;;;;10776273;26;20452;-74
2024/04/21 17:57:58;;;;;;;10.68;9.35;;;;;;;;;;10773793;26;20441;-77
2024/04/21 18:02:52;;;;;;;9.52;8.52;;;;;;;;;;10768994;26;20004;-75
2024/04/21 18:07:48;;;;;;;13.48;10.98;;;;;;;;;;10786916;26;20078;-76
2024/04/21 18:12:42;;;;;;;9.60;8.70;;;;;;;;;;10793824;26;20016;-74
2024/04/21 18:17:36;;;;;;;11.40;10.38;;;;;;;;;;10803278;26;20333;-75
2024/04/21 18:22:29;;;;;;;7.15;6.45;;;;;;;;;;10757437;26;20031;-75
2024/04/21 18:27:24;;;;;;;6.50;5.90;;;;;;;;;;10767133;26;20473;-75
2024/04/21 18:32:18;;;;;;;8.98;8.27;;;;;;;;;;10762950;26;20012;-75
2024/04/21 18:37:12;;;;;;;10.40;9.40;;;;;;;;;;10759651;26;20432;-76
2024/04/21 18:42:07;;;;;;;10.85;9.85;;;;;;;;;;10759031;26;20016;-76
2024/04/21 18:47:01;;;;;;;11.50;10.60;;;;;;;;;;10761943;26;20449;-77
2024/04/21 18:51:56;;;;;;;13.88;12.65;;;;;;;;;;10748549;26;20004;-77
2024/04/21 18:56:49;;;;;;;10.88;10.05;;;;;;;;;;10762141;26;20322;-75
2024/04/21 19:01:43;;;;;;;11.18;10.18;;;;;;;;;;10763537;26;20011;-76
2024/04/21 19:06:38;;;;;;;11.35;10.35;;;;;;;;;;10764691;26;20004;-75
2024/04/21 19:11:35;;;;;;;8.98;8.27;;;;;;;;;;10766670;26;20089;-75
2024/04/21 19:16:35;;;;;;;9.00;8.10;;;;;;;;;;10764450;26;20011;-76
2024/04/21 19:21:30;;;;;;;7.43;5.30;;;;;;;;;;10756788;26;20332;-75
2024/04/21 19:26:24;;;;;;;5.18;4.68;;;;;;;;;;10752595;26;20341;-76
2024/04/21 19:31:18;;;;;;;4.50;4.13;;;;;;;;;;10762424;26;20004;-74
2024/04/21 19:36:14;;;;;;;3.63;2.90;;;;;;;;;;10759362;26;20058;-74
2024/04/21 19:41:07;;;;;;;4.00;3.70;;;;;;;;;;10762176;26;20470;-74
2024/04/21 19:46:00;;;;;;;2.83;2.63;;;;;;;;;;10751863;26;20016;-73
2024/04/21 19:50:57;;;;;;;4.47;4.05;;;;;;;;;;10763307;26;20004;-74
2024/04/21 19:55:50;;;;;;;4.00;3.70;;;;;;;;;;10760936;26;20007;-73
2024/04/21 20:00:44;;;;;;;4.55;4.15;;;;;;;;;;10763582;26;20016;-73
2024/04/21 20:05:41;;;;;;;6.97;3.65;;;;;;;;;;10765519;26;20396;-73
2024/04/21 20:10:35;;;;;;;4.18;3.78;;;;;;;;;;10764144;26;20443;-73
2024/04/21 20:20:42;;;;;;;4.32;4.00;;;;;;;;;;10779709;26;20004;-73
2024/04/21 20:25:37;;;;;;;4.25;3.25;;;;;;;;;;10790453;26;20619;-74
2024/04/21 20:30:51;;;;;;;3.92;3.45;;;;;;;;;;10766798;26;20432;-72
2024/04/21 20:35:44;;;;;;;3.10;2.80;;;;;;;;;;10759689;26;20000;-70
2024/04/21 20:40:38;;;;;;;5.10;3.58;;;;;;;;;;10790658;26;20004;-72
2024/04/21 20:45:32;;;;;;;3.28;3.08;;;;;;;;;;10768324;26;20004;-72
2024/04/21 20:50:27;;;;;;;4.38;4.07;;;;;;;;;;10772965;26;20015;-68
2024/04/21 20:55:24;;;;;;;4.63;3.20;;;;;;;;;;10773038;26;20085;-69
2024/04/21 21:00:18;;;;;;;3.75;3.17;;;;;;;;;;10775252;26;20019;-70
2024/04/21 21:05:12;;;;;;;3.35;2.63;;;;;;;;;;10766800;26;20004;-70
2024/04/21 21:10:07;;;;;;;2.38;2.17;;;;;;;;;;10776628;26;20480;-72
2024/04/21 21:15:01;;;;;;;2.03;1.92;;;;;;;;;;10777162;26;20134;-72
2024/04/21 21:19:55;;;;;;;3.50;3.00;;;;;;;;;;10786501;26;20018;-74
2024/04/21 21:24:49;;;;;;;4.43;3.88;;;;;;;;;;10782439;26;20014;-72
2024/04/21 21:29:42;;;;;;;4.05;3.05;;;;;;;;;;10762026;26;20353;-71
2024/04/21 21:34:36;;;;;;;3.08;2.88;;;;;;;;;;10782140;26;20008;-73
2024/04/21 21:39:30;;;;;;;3.35;3.15;;;;;;;;;;10776896;26;20004;-72
2024/04/21 21:44:24;;;;;;;6.65;5.05;;;;;;;;;;10768417;26;20055;-71
2024/04/21 21:49:20;;;;;;;4.07;2.80;;;;;;;;;;10767932;26;20032;-70
2024/04/21 21:54:14;;;;;;;3.17;2.63;;;;;;;;;;10764187;26;20011;-73
2024/04/21 21:59:09;;;;;;;3.70;3.03;;;;;;;;;;10757002;26;20334;-71
2024/04/21 22:04:03;;;;;;;3.45;3.25;;;;;;;;;;10764647;26;20019;-70
2024/04/21 22:08:57;;;;;;;3.90;3.60;;;;;;;;;;10763996;26;20058;-70
2024/04/21 22:13:51;;;;;;;4.18;3.88;;;;;;;;;;10770526;26;20001;-72
2024/04/21 22:18:45;;;;;;;4.05;3.75;;;;;;;;;;10763775;26;20004;-72
2024/04/21 22:23:39;;;;;;;4.10;3.20;;;;;;;;;;10763203;26;20012;-72
2024/04/21 22:28:34;;;;;;;3.63;3.33;;;;;;;;;;10764025;26;20004;-71
2024/04/21 22:33:28;;;;;;;4.78;2.70;;;;;;;;;;10762873;26;20424;-73
2024/04/21 22:38:22;;;;;;;3.25;2.97;;;;;;;;;;10763440;26;20004;-73
2024/04/21 22:43:15;;;;;;;3.55;3.20;;;;;;;;;;10762740;26;20015;-72
2024/04/21 22:48:10;;;;;;;4.32;3.92;;;;;;;;;;10763093;26;20004;-72
2024/04/21 22:53:04;;;;;;;3.92;3.63;;;;;;;;;;10763066;26;20026;-73
2024/04/21 22:57:58;;;;;;;3.50;3.30;;;;;;;;;;10762746;26;20004;-72
2024/04/21 23:02:52;;;;;;;4.18;3.88;;;;;;;;;;10762620;26;20036;-73
2024/04/21 23:07:47;;;;;;;7.93;4.30;;;;;;;;;;10762521;26;20004;-72
2024/04/21 23:12:41;;;;;;;5.03;4.63;;;;;;;;;;10776180;26;20004;-71
2024/04/21 23:17:35;;;;;;;5.28;4.88;;;;;;;;;;10780889;26;20000;-72
2024/04/21 23:22:29;;;;;;;5.68;5.22;;;;;;;;;;10793524;26;20359;-71
2024/04/21 23:27:23;;;;;;;8.00;7.30;;;;;;;;;;10809084;26;20000;-71
2024/04/21 23:32:18;;;;;;;9.25;8.35;;;;;;;;;;10815862;26;20027;-72
2024/04/21 23:37:12;;;;;;;13.55;8.90;;;;;;;;;;10798789;26;19999;-72
2024/04/21 23:42:07;;;;;;;10.90;9.80;;;;;;;;;;10800570;26;20011;-72
2024/04/21 23:47:01;;;;;;;10.85;9.85;;;;;;;;;;10815523;26;20018;-71
2024/04/21 23:51:55;;;;;;;10.07;8.88;;;;;;;;;;10765711;26;20000;-72
2024/04/21 23:56:50;;;;;;;10.10;9.20;;;;;;;;;;10762084;26;20000;-71
